Pagrindinis puslapis
METAR-TAF:

METAR-TAF

Oro uostai :

Estešundas-Frösön, Švedija

platuma: 63-11N, ilguma: 014-30E, Aukštis: 376 m

Dabartinis oras

Ataskaita buvo paskelbta 28 minutes, ne 13:20 UTC
Vėjas 10 kt iš Šiaurės/Šiaurės Vakarų, svyruoja nuo Vakarų/Šiaurės Vakarų ir Šiaurės
Temperatūra 3°C
Drėgmė 25%
Slėgis 1016 hPa
Matomumas 10 km arba daugiau

METAR: ESNZ 201320Z AUTO 33010KT 300V010 9999 NCD 03/M15 Q1016

Laikas: 15:48 (13:48 UTC)

Prognozė

Ataskaita buvo paskelbta 5 valandos ir 18 minutes, ne 08:30 UTC
Prognozė galioja nuo 20 metu 09 UTC su 20 metu 11 UTC
Vėjas 8 kt iš Šiaurės
Matomumas 10 km arba daugiau
nėra debesų žemiau 1500 m ir nėra kamuolinių lietaus debesų

TAF: ESNZ 200830Z 2009/2011 35008KT CAVOK

Orai ataskaitas ir orų prognozės (METAR, TAF).

turimą stotys yra geltonos ir raudonos taškus žemėlapyje.

Perkelti pele per norėdami pamatyti stoties vardą.

Tada spustelėkite, norėdami matyti oro stebėjimo ir prognozės.

Norėdami pakeisti žemėlapį: spustelėkite ant žalios mygtukų su juodo kryžiaus žemyn,; žalią mygtuką su brūkšneliu, jei norite nutolinti; arba žalių rodyklių gretimoms žemėlapius.


METAR-TAF: